Time;durP1;ratioP1;P1;durP2;ratioP2;P2;SDS_P1;SDS_P2;PMS_P1;PMS_P2;Temp;Humidity;BMP_temperature;BMP_pressure;BME280_temperature;BME280_humidity;BME280_pressure;Samples;Min_cycle;Max_cycle;Signal;HPM_P1;HPM_P2
2023/06/21 00:01:28;;;;;;;3.35;3.05;;;;;;;21.54;100.00;97529.00;1701039;75;749409;-71
2023/06/21 00:03:59;;;;;;;2.90;2.70;;;;;;;21.51;100.00;97529.38;1710122;75;677563;-70
2023/06/21 00:06:34;;;;;;;3.70;3.35;;;;;;;21.50;100.00;97534.16;1701633;75;738571;-72
2023/06/21 00:09:07;;;;;;;3.20;2.90;;;;;;;21.43;100.00;97532.88;1710370;75;675559;-71
2023/06/21 00:11:38;;;;;;;3.65;3.35;;;;;;;21.45;100.00;97527.50;1701345;75;746705;-71
2023/06/21 00:14:08;;;;;;;3.70;3.40;;;;;;;21.43;100.00;97537.69;1709716;75;695735;-70
2023/06/21 00:16:38;;;;;;;3.60;3.30;;;;;;;21.41;100.00;97537.53;1701274;75;730895;-71
2023/06/21 00:19:08;;;;;;;3.65;3.35;;;;;;;21.36;100.00;97538.38;1709736;75;681307;-71
2023/06/21 00:21:39;;;;;;;3.10;2.80;;;;;;;21.36;100.00;97552.31;1700992;75;733374;-70
2023/06/21 00:24:13;;;;;;;4.00;3.60;;;;;;;21.31;100.00;97553.97;1710305;75;676286;-68
2023/06/21 00:26:43;;;;;;;3.90;3.60;;;;;;;21.31;100.00;97553.22;1701087;75;720824;-71
2023/06/21 00:29:13;;;;;;;3.75;3.45;;;;;;;21.32;100.00;97552.69;1709967;75;673711;-70
2023/06/21 00:31:43;;;;;;;3.70;3.40;;;;;;;21.30;100.00;97546.91;1700297;75;755168;-72
2023/06/21 00:34:13;;;;;;;3.45;3.15;;;;;;;21.17;100.00;97545.03;1710161;75;691421;-71
2023/06/21 00:36:44;;;;;;;3.90;3.60;;;;;;;21.21;100.00;97533.50;1700856;75;769776;-71
2023/06/21 00:39:17;;;;;;;3.50;3.10;;;;;;;21.13;100.00;97544.63;1710067;75;672495;-70
2023/06/21 00:41:47;;;;;;;3.95;3.65;;;;;;;21.09;100.00;97549.81;1701030;75;757573;-71
2023/06/21 00:44:17;;;;;;;4.45;4.05;;;;;;;21.12;100.00;97548.72;1710155;75;671904;-70
2023/06/21 00:46:48;;;;;;;4.40;4.00;;;;;;;21.06;100.00;97551.66;1700456;75;747569;-71
2023/06/21 00:49:19;;;;;;;4.30;3.85;;;;;;;20.99;100.00;97562.75;1710478;75;668079;-72
2023/06/21 00:51:53;;;;;;;3.80;3.50;;;;;;;20.98;100.00;97556.44;1701463;75;723146;-72
2023/06/21 00:54:28;;;;;;;4.20;3.80;;;;;;;20.86;100.00;97546.94;1710222;75;677886;-71
2023/06/21 00:56:59;;;;;;;5.20;4.75;;;;;;;20.89;100.00;97529.13;1701576;75;736726;-71
2023/06/21 00:59:29;;;;;;;4.30;3.90;;;;;;;20.92;100.00;97522.47;1710463;75;673052;-72
2023/06/21 01:02:01;;;;;;;4.50;4.10;;;;;;;20.82;100.00;97535.41;1701349;75;740976;-73
2023/06/21 01:04:35;;;;;;;4.50;4.10;;;;;;;20.79;100.00;97536.50;1709506;75;672386;-70
2023/06/21 01:07:19;;;;;;;5.65;5.15;;;;;;;20.75;100.00;97542.41;1700893;75;754563;-69
2023/06/21 01:10:10;;;;;;;11.80;10.60;;;;;;;20.54;100.00;97541.69;1701808;75;676747;-71
2023/06/21 01:12:58;;;;;;;8.45;7.75;;;;;;;20.74;100.00;97549.28;1707672;75;671885;-69
2023/06/21 01:15:33;;;;;;;7.90;7.20;;;;;;;20.71;100.00;97538.50;1709933;75;669558;-72
2023/06/21 01:18:06;;;;;;;5.80;5.30;;;;;;;20.79;100.00;97533.72;1702013;75;667620;-72
2023/06/21 01:20:38;;;;;;;5.90;5.40;;;;;;;20.75;100.00;97528.50;1709983;75;675924;-69
2023/06/21 01:23:25;;;;;;;5.25;4.75;;;;;;;20.71;100.00;97517.00;1701400;75;733961;-70
2023/06/21 01:26:13;;;;;;;4.30;3.90;;;;;;;20.67;100.00;97521.44;1702170;75;673166;-72
2023/06/21 01:29:20;;;;;;;4.65;4.25;;;;;;;20.66;100.00;97531.03;1708926;75;675780;-69
2023/06/21 01:31:53;;;;;;;9.50;8.50;;;;;;;20.45;100.00;97536.66;1702161;75;671277;-70
2023/06/21 01:34:24;;;;;;;11.95;10.85;;;;;;;20.48;100.00;97532.78;1710415;75;672649;-69
2023/06/21 01:36:55;;;;;;;8.60;7.80;;;;;;;20.70;100.00;97537.75;1702138;75;670519;-72
2023/06/21 01:39:30;;;;;;;7.20;6.60;;;;;;;20.69;100.00;97555.00;1710089;75;671108;-68
2023/06/21 01:42:04;;;;;;;10.20;9.20;;;;;;;20.45;100.00;97575.59;1702348;75;675569;-73
2023/06/21 01:44:38;;;;;;;14.50;13.10;;;;;;;20.25;100.00;97593.78;1709677;75;704224;-69
2023/06/21 01:47:10;;;;;;;13.85;12.55;;;;;;;20.45;100.00;97592.28;1700845;75;749243;-69
2023/06/21 01:49:41;;;;;;;15.50;14.00;;;;;;;20.42;100.00;97585.78;1709275;75;701425;-71
2023/06/21 01:52:11;;;;;;;13.65;12.30;;;;;;;20.55;100.00;97577.34;1701334;75;753118;-69
2023/06/21 01:54:45;;;;;;;10.40;9.20;;;;;;;20.63;100.00;97555.13;1710188;75;674568;-69
2023/06/21 01:57:17;;;;;;;9.20;8.40;;;;;;;20.62;100.00;97545.31;1700932;75;739183;-71
2023/06/21 01:59:50;;;;;;;9.05;8.15;;;;;;;20.57;100.00;97541.41;1709727;75;674632;-71
2023/06/21 02:02:23;;;;;;;7.35;6.75;;;;;;;20.57;100.00;97523.97;1701474;75;741853;-72
2023/06/21 02:04:55;;;;;;;6.60;6.10;;;;;;;20.59;100.00;97515.81;1709653;75;677932;-69
2023/06/21 02:07:25;;;;;;;6.40;5.90;;;;;;;20.59;100.00;97513.03;1701256;75;749957;-71
2023/06/21 02:09:56;;;;;;;6.50;5.90;;;;;;;20.56;100.00;97514.13;1709977;75;705575;-71
2023/06/21 02:12:26;;;;;;;5.85;5.35;;;;;;;20.63;100.00;97516.19;1700892;75;747627;-70
2023/06/21 02:14:59;;;;;;;5.55;5.05;;;;;;;20.59;100.00;97518.59;1710093;75;671186;-70
2023/06/21 02:17:29;;;;;;;6.40;5.80;;;;;;;20.60;100.00;97517.31;1700406;75;746995;-73
2023/06/21 02:20:00;;;;;;;5.50;5.00;;;;;;;20.67;100.00;97527.00;1710079;75;685404;-69
2023/06/21 02:22:31;;;;;;;6.35;5.75;;;;;;;20.47;100.00;97536.84;1700333;75;752456;-69
2023/06/21 02:25:01;;;;;;;7.25;6.55;;;;;;;20.55;100.00;97545.97;1709906;75;672583;-73
2023/06/21 02:27:31;;;;;;;6.00;5.50;;;;;;;20.60;100.00;97556.25;1701075;75;749864;-72
2023/06/21 02:30:04;;;;;;;5.95;5.45;;;;;;;20.66;100.00;97562.41;1710544;75;672780;-70
2023/06/21 02:32:35;;;;;;;5.95;5.00;;;;;;;20.54;100.00;97544.47;1701039;75;748676;-71
2023/06/21 02:35:05;;;;;;;6.55;5.95;;;;;;;20.46;100.00;97547.22;1709725;75;675768;-70
2023/06/21 02:37:35;;;;;;;6.15;5.65;;;;;;;20.46;100.00;97549.25;1701751;75;729049;-69
2023/06/21 02:40:09;;;;;;;6.70;6.10;;;;;;;20.30;100.00;97560.28;1709656;75;673486;-69
2023/06/21 02:42:40;;;;;;;7.65;6.95;;;;;;;20.29;100.00;97560.81;1700659;75;745485;-73
2023/06/21 02:45:13;;;;;;;7.30;6.70;;;;;;;20.32;100.00;97554.91;1709956;75;678980;-73
2023/06/21 02:47:44;;;;;;;6.30;5.70;;;;;;;20.40;100.00;97557.75;1702357;75;726274;-70
2023/06/21 02:50:15;;;;;;;6.80;6.20;;;;;;;20.34;100.00;97555.09;1710230;75;681351;-70
2023/06/21 02:52:45;;;;;;;6.30;5.70;;;;;;;20.35;100.00;97569.78;1700934;75;763770;-71
2023/06/21 02:55:16;;;;;;;8.05;7.35;;;;;;;20.30;100.00;97571.41;1710222;75;668678;-72
2023/06/21 02:57:46;;;;;;;6.65;6.05;;;;;;;20.27;100.00;97586.38;1701301;75;756237;-73
2023/06/21 03:00:23;;;;;;;6.70;6.10;;;;;;;20.22;100.00;97587.25;1709615;75;669669;-69
2023/06/21 03:02:54;;;;;;;7.50;6.80;;;;;;;20.16;100.00;97578.34;1701205;75;751305;-70
2023/06/21 03:05:24;;;;;;;8.40;7.70;;;;;;;20.15;100.00;97590.72;1708622;75;697382;-69
2023/06/21 03:07:54;;;;;;;9.55;8.35;;;;;;;20.09;100.00;97599.22;1701748;75;729817;-72
2023/06/21 03:10:24;;;;;;;9.15;8.30;;;;;;;20.11;100.00;97596.63;1710251;75;672007;-71
2023/06/21 03:12:55;;;;;;;8.80;8.00;;;;;;;20.14;100.00;97601.09;1701432;75;750173;-70
2023/06/21 03:15:28;;;;;;;8.10;7.40;;;;;;;20.10;100.00;97597.91;1709753;75;709175;-70
2023/06/21 03:17:58;;;;;;;8.30;7.60;;;;;;;20.11;100.00;97607.00;1700183;75;742366;-72
2023/06/21 03:20:28;;;;;;;9.85;8.95;;;;;;;20.11;100.00;97616.09;1710004;75;675963;-70
2023/06/21 03:22:58;;;;;;;8.60;7.80;;;;;;;20.04;100.00;97600.09;1701095;75;742309;-72
2023/06/21 03:25:30;;;;;;;10.55;9.60;;;;;;;20.06;100.00;97608.63;1709523;75;678252;-70
2023/06/21 03:28:01;;;;;;;11.00;10.00;;;;;;;20.05;100.00;97615.47;1698785;75;855544;-70
2023/06/21 03:30:33;;;;;;;11.60;10.60;;;;;;;19.97;100.00;97623.00;1707893;75;891051;-70
2023/06/21 03:33:04;;;;;;;10.00;9.10;;;;;;;20.04;100.00;97619.53;1700885;75;736342;-73
2023/06/21 03:35:34;;;;;;;8.60;7.90;;;;;;;20.13;100.00;97623.88;1707813;75;873658;-73
2023/06/21 03:38:05;;;;;;;7.10;6.50;;;;;;;20.22;100.00;97634.53;1700599;75;759887;-72
2023/06/21 03:40:35;;;;;;;6.35;5.80;;;;;;;20.24;100.00;97628.44;1709591;75;679884;-71
2023/06/21 03:43:05;;;;;;;12.50;11.25;;;;;;;20.06;100.00;97632.88;1700855;75;740549;-71
2023/06/21 03:45:38;;;;;;;9.20;8.40;;;;;;;20.24;100.00;97636.75;1710493;75;672566;-70
2023/06/21 03:48:09;;;;;;;7.90;7.25;;;;;;;20.26;100.00;97636.97;1701388;75;727792;-69
2023/06/21 03:50:40;;;;;;;7.10;6.40;;;;;;;20.26;100.00;97637.72;1709699;75;673224;-71
2023/06/21 03:53:10;;;;;;;6.20;5.70;;;;;;;20.36;100.00;97635.19;1701351;75;751727;-70
2023/06/21 03:55:43;;;;;;;6.00;5.50;;;;;;;20.36;100.00;97638.72;1710878;75;672479;-70
2023/06/21 03:58:13;;;;;;;7.55;6.90;;;;;;;20.27;100.00;97644.75;1702232;75;758944;-71
2023/06/21 04:00:46;;;;;;;17.00;14.95;;;;;;;19.92;100.00;97648.88;1710625;75;672260;-70
2023/06/21 04:03:16;;;;;;;17.60;16.00;;;;;;;19.97;100.00;97640.41;1701950;75;748632;-69
2023/06/21 04:05:46;;;;;;;12.55;11.45;;;;;;;20.31;100.00;97647.94;1710031;75;685999;-71
2023/06/21 04:08:16;;;;;;;10.55;9.55;;;;;;;20.40;100.00;97655.06;1700844;75;753801;-71
2023/06/21 04:10:47;;;;;;;8.60;7.90;;;;;;;20.43;100.00;97648.41;1709912;75;676581;-71
2023/06/21 04:13:17;;;;;;;7.65;6.95;;;;;;;20.51;100.00;97645.69;1701244;75;745306;-70
2023/06/21 04:15:50;;;;;;;6.40;5.80;;;;;;;20.49;100.00;97651.06;1709893;75;687188;-70
2023/06/21 04:18:20;;;;;;;5.95;5.45;;;;;;;20.56;100.00;97655.97;1701823;75;750358;-73
2023/06/21 04:20:50;;;;;;;5.65;5.15;;;;;;;20.55;100.00;97657.22;1710006;75;670079;-71
2023/06/21 04:23:21;;;;;;;5.00;4.60;;;;;;;20.58;100.00;97664.50;1701157;75;749112;-69
2023/06/21 04:25:51;;;;;;;5.90;5.40;;;;;;;20.51;100.00;97665.16;1710521;75;682204;-71
2023/06/21 04:28:25;;;;;;;6.30;5.70;;;;;;;20.60;100.00;97668.22;1701278;75;746771;-69
2023/06/21 04:30:58;;;;;;;5.30;4.80;;;;;;;20.62;100.00;97657.31;1709331;75;692464;-72
2023/06/21 04:33:28;;;;;;;4.90;4.50;;;;;;;20.68;100.00;97668.28;1700857;75;732410;-71
2023/06/21 04:35:59;;;;;;;6.10;5.60;;;;;;;20.61;100.00;97666.19;1710347;75;672188;-72
2023/06/21 04:38:29;;;;;;;6.50;5.90;;;;;;;20.69;100.00;97675.34;1701717;75;745901;-70
2023/06/21 04:40:59;;;;;;;5.15;4.75;;;;;;;20.77;100.00;97667.81;1710054;75;671956;-72
2023/06/21 04:43:29;;;;;;;4.90;4.50;;;;;;;20.80;100.00;97680.63;1701528;75;748366;-70
2023/06/21 04:46:03;;;;;;;5.60;5.10;;;;;;;20.79;100.00;97683.97;1708997;75;739497;-72
2023/06/21 04:48:33;;;;;;;5.85;5.20;;;;;;;20.84;100.00;97683.81;1701078;75;746342;-70
2023/06/21 04:51:03;;;;;;;5.60;5.10;;;;;;;20.91;100.00;97687.94;1710303;75;680061;-73
2023/06/21 04:53:33;;;;;;;5.30;4.80;;;;;;;20.97;100.00;97677.41;1701306;75;747954;-70
2023/06/21 04:56:04;;;;;;;5.60;5.10;;;;;;;20.99;100.00;97668.50;1710263;75;672407;-69
2023/06/21 04:58:37;;;;;;;5.65;5.15;;;;;;;21.03;100.00;97678.00;1701552;75;742594;-68
2023/06/21 05:01:13;;;;;;;5.70;5.20;;;;;;;21.01;100.00;97677.06;1709489;75;680014;-70
2023/06/21 05:03:48;;;;;;;12.45;11.15;;;;;;;20.81;100.00;97671.00;1701230;75;720466;-70
2023/06/21 05:06:20;;;;;;;13.70;12.30;;;;;;;20.93;100.00;97670.72;1709138;75;701750;-69
2023/06/21 05:08:50;;;;;;;12.75;11.40;;;;;;;21.15;100.00;97680.50;1701494;75;721980;-70
2023/06/21 05:11:21;;;;;;;9.70;8.80;;;;;;;21.19;100.00;97678.84;1709894;75;671616;-68
2023/06/21 05:13:51;;;;;;;10.35;9.45;;;;;;;21.23;100.00;97684.78;1701093;75;747372;-70
2023/06/21 05:16:24;;;;;;;9.35;8.35;;;;;;;21.26;100.00;97680.94;1710324;75;675775;-71
2023/06/21 05:18:54;;;;;;;11.40;10.40;;;;;;;21.27;100.00;97673.31;1701081;75;731093;-70
2023/06/21 05:21:25;;;;;;;9.00;8.10;;;;;;;21.51;100.00;97677.72;1709845;75;672009;-68
2023/06/21 05:23:55;;;;;;;10.05;9.15;;;;;;;21.60;100.00;97677.22;1700962;75;747359;-70
2023/06/21 05:26:25;;;;;;;16.75;14.30;;;;;;;21.45;100.00;97671.56;1710281;75;675193;-71
2023/06/21 05:28:55;;;;;;;18.90;17.10;;;;;;;21.47;100.00;97668.97;1701115;75;750815;-69
2023/06/21 05:31:28;;;;;;;16.35;14.65;;;;;;;21.70;100.00;97667.03;1709976;75;674408;-71
2023/06/21 05:33:58;;;;;;;12.40;11.20;;;;;;;21.96;100.00;97662.47;1700911;75;765850;-70
2023/06/21 05:36:29;;;;;;;10.50;9.45;;;;;;;22.11;100.00;97664.53;1710146;75;678054;-69
2023/06/21 05:38:59;;;;;;;8.15;7.45;;;;;;;22.23;100.00;97671.28;1699448;75;819434;-68
2023/06/21 05:41:29;;;;;;;17.10;15.40;;;;;;;22.01;100.00;97674.75;1710245;75;675206;-69
2023/06/21 05:44:00;;;;;;;13.15;11.90;;;;;;;22.26;100.00;97678.53;1701662;75;734802;-70
2023/06/21 05:46:32;;;;;;;17.30;15.70;;;;;;;22.04;100.00;97691.09;1709527;75;685542;-71
2023/06/21 05:49:03;;;;;;;18.15;16.35;;;;;;;22.21;100.00;97687.81;1701446;75;741796;-71
2023/06/21 05:51:33;;;;;;;18.70;16.90;;;;;;;22.21;100.00;97685.03;1709523;75;680425;-69
2023/06/21 05:54:03;;;;;;;18.25;16.45;;;;;;;22.51;100.00;97691.94;1701377;75;745785;-69
2023/06/21 05:56:37;;;;;;;16.85;15.30;;;;;;;22.60;100.00;97694.16;1709971;75;673605;-70
2023/06/21 05:59:07;;;;;;;15.85;14.35;;;;;;;22.74;100.00;97697.53;1701434;75;718586;-72
2023/06/21 06:01:42;;;;;;;17.00;15.20;;;;;;;22.99;100.00;97692.13;1709914;75;685037;-69
2023/06/21 06:04:12;;;;;;;19.60;17.25;;;;;;;22.89;100.00;97699.56;1700593;75;758446;-71
2023/06/21 06:06:44;;;;;;;18.50;16.65;;;;;;;22.94;100.00;97695.84;1710003;75;682889;-72
2023/06/21 06:09:14;;;;;;;18.55;15.70;;;;;;;23.11;100.00;97700.88;1700816;75;759616;-72
2023/06/21 06:11:44;;;;;;;17.40;15.60;;;;;;;23.31;100.00;97705.50;1709854;75;674175;-71
2023/06/21 06:14:15;;;;;;;16.30;14.70;;;;;;;23.38;100.00;97699.13;1700284;75;758817;-71
2023/06/21 06:16:47;;;;;;;17.35;15.50;;;;;;;23.35;100.00;97705.84;1710010;75;678697;-69
2023/06/21 06:19:18;;;;;;;15.50;13.90;;;;;;;23.63;100.00;97704.09;1700380;75;746634;-71
2023/06/21 06:21:48;;;;;;;17.25;15.55;;;;;;;23.66;100.00;97702.22;1709251;75;680406;-69
2023/06/21 06:24:18;;;;;;;18.15;15.85;;;;;;;23.76;100.00;97706.69;1700925;75;748612;-71
2023/06/21 06:26:49;;;;;;;17.25;15.45;;;;;;;23.81;100.00;97708.53;1709680;75;671365;-74
2023/06/21 06:29:19;;;;;;;16.20;14.55;;;;;;;23.78;100.00;97708.88;1700743;75;740525;-69
2023/06/21 06:31:52;;;;;;;16.15;14.45;;;;;;;23.80;100.00;97709.81;1709413;75;682074;-70
2023/06/21 06:34:23;;;;;;;16.15;14.45;;;;;;;23.92;100.00;97710.13;1701070;75;731808;-70
2023/06/21 06:36:53;;;;;;;16.60;14.55;;;;;;;24.02;100.00;97707.47;1710007;75;681023;-70
2023/06/21 06:39:23;;;;;;;17.45;15.60;;;;;;;23.88;100.00;97709.78;1700892;75;758533;-70
2023/06/21 06:41:53;;;;;;;14.95;13.05;;;;;;;24.34;100.00;97697.59;1709597;75;678484;-69
2023/06/21 06:44:23;;;;;;;15.40;13.90;;;;;;;24.32;100.00;97700.97;1701198;75;750864;-72
2023/06/21 06:46:56;;;;;;;15.80;14.20;;;;;;;24.50;100.00;97706.66;1709271;75;689688;-69
2023/06/21 06:49:26;;;;;;;16.10;13.65;;;;;;;24.51;100.00;97711.69;1700645;75;758941;-69
2023/06/21 06:51:56;;;;;;;18.00;14.90;;;;;;;24.55;100.00;97700.09;1709654;75;705535;-69
2023/06/21 06:54:27;;;;;;;15.90;14.25;;;;;;;24.79;100.00;97706.97;1701202;75;749438;-71
2023/06/21 06:56:57;;;;;;;13.40;12.10;;;;;;;25.11;100.00;97713.78;1709547;75;678012;-73
2023/06/21 06:59:27;;;;;;;13.45;12.05;;;;;;;25.24;100.00;97717.06;1701182;75;748140;-72
2023/06/21 07:02:00;;;;;;;13.95;12.45;;;;;;;25.50;97.76;97721.25;1709899;75;672492;-69
2023/06/21 07:04:31;;;;;;;14.80;13.05;;;;;;;25.69;94.11;97717.13;1701352;75;742090;-71
2023/06/21 07:07:01;;;;;;;15.40;13.90;;;;;;;25.54;91.73;97720.84;1710035;75;679430;-70
2023/06/21 07:09:33;;;;;;;15.90;14.20;;;;;;;25.64;91.38;97718.09;1701533;75;740024;-71
2023/06/21 07:12:03;;;;;;;13.90;12.60;;;;;;;26.06;89.94;97715.19;1710284;75;682995;-69
2023/06/21 07:14:33;;;;;;;12.55;11.30;;;;;;;25.98;88.35;97725.78;1701173;75;754770;-70
2023/06/21 07:17:06;;;;;;;15.25;13.65;;;;;;;26.20;89.04;97723.25;1710638;75;672717;-69
2023/06/21 07:19:37;;;;;;;14.20;12.90;;;;;;;26.16;86.45;97718.03;1701071;75;761086;-73
2023/06/21 07:22:08;;;;;;;19.40;13.80;;;;;;;26.52;83.59;97717.31;1710319;75;682451;-72
2023/06/21 07:24:38;;;;;;;14.30;12.80;;;;;;;26.33;81.91;97722.84;1701606;75;766586;-72
2023/06/21 07:27:08;;;;;;;15.30;12.05;;;;;;;26.71;81.74;97721.56;1710683;75;671902;-70
2023/06/21 07:29:39;;;;;;;14.00;12.70;;;;;;;26.66;82.55;97719.78;1702019;75;746817;-70
2023/06/21 07:32:12;;;;;;;15.40;12.85;;;;;;;26.85;79.40;97710.69;1710511;75;684836;-71
2023/06/21 07:34:42;;;;;;;13.80;12.30;;;;;;;27.15;77.12;97712.94;1701508;75;744945;-73
2023/06/21 07:37:12;;;;;;;13.10;11.90;;;;;;;27.24;75.05;97707.97;1710615;75;677494;-72
2023/06/21 07:39:42;;;;;;;12.60;11.35;;;;;;;27.44;73.16;97717.16;1701835;75;749190;-73
2023/06/21 07:42:12;;;;;;;17.65;12.75;;;;;;;27.27;73.82;97712.41;1710218;75;675350;-69
2023/06/21 07:44:42;;;;;;;20.35;13.65;;;;;;;27.32;71.20;97719.81;1701194;75;742209;-69
2023/06/21 07:47:15;;;;;;;13.90;12.30;;;;;;;27.53;72.04;97722.03;1710106;75;686213;-69
2023/06/21 07:49:45;;;;;;;12.35;11.15;;;;;;;27.36;69.19;97726.47;1701350;75;750936;-71
2023/06/21 07:52:16;;;;;;;12.65;11.35;;;;;;;27.74;69.26;97716.56;1709787;75;674206;-72
2023/06/21 07:54:48;;;;;;;10.70;9.70;;;;;;;28.00;70.29;97714.19;1701541;75;766982;-70
2023/06/21 07:57:18;;;;;;;10.80;9.80;;;;;;;28.06;72.92;97717.41;1710659;75;674346;-71
2023/06/21 07:59:49;;;;;;;11.00;10.00;;;;;;;28.27;70.15;97718.84;1701210;75;744012;-72
2023/06/21 08:02:23;;;;;;;10.10;9.20;;;;;;;28.54;70.25;97722.19;1710127;75;673330;-71
2023/06/21 08:04:53;;;;;;;9.80;8.90;;;;;;;28.73;67.62;97723.44;1701486;75;740308;-72
2023/06/21 08:07:23;;;;;;;10.40;9.40;;;;;;;28.75;72.49;97727.13;1710022;75;677268;-70
2023/06/21 08:09:53;;;;;;;11.50;10.40;;;;;;;28.73;71.32;97726.25;1701509;75;742824;-72
2023/06/21 08:12:23;;;;;;;11.15;10.05;;;;;;;28.81;74.27;97733.19;1710088;75;706274;-70
2023/06/21 08:14:53;;;;;;;10.80;9.80;;;;;;;29.04;68.96;97735.44;1700561;75;761489;-70
2023/06/21 08:17:26;;;;;;;10.00;9.10;;;;;;;29.18;68.72;97729.31;1709597;75;677874;-70
2023/06/21 08:19:56;;;;;;;9.25;8.35;;;;;;;29.37;71.43;97729.19;1701385;75;748483;-69
2023/06/21 08:22:27;;;;;;;11.25;10.20;;;;;;;29.17;69.93;97731.38;1710447;75;671263;-71
2023/06/21 08:24:59;;;;;;;12.25;11.15;;;;;;;29.23;73.72;97726.16;1700534;75;740859;-71
2023/06/21 08:27:29;;;;;;;11.60;10.45;;;;;;;29.26;76.28;97732.66;1709961;75;681569;-71
2023/06/21 08:29:59;;;;;;;12.55;11.25;;;;;;;29.42;77.16;97730.19;1700874;75;751733;-70
2023/06/21 08:32:32;;;;;;;11.80;10.70;;;;;;;29.35;78.10;97725.47;1710066;75;677040;-72
2023/06/21 08:35:02;;;;;;;10.80;9.80;;;;;;;29.50;74.51;97727.88;1701125;75;764710;-72
2023/06/21 08:37:32;;;;;;;11.10;10.10;;;;;;;29.60;73.94;97727.81;1710167;75;669533;-69
2023/06/21 08:40:03;;;;;;;10.20;9.20;;;;;;;29.96;71.12;97731.53;1701603;75;734784;-72
2023/06/21 08:42:33;;;;;;;10.00;9.10;;;;;;;29.91;69.56;97733.34;1709841;75;675455;-69
2023/06/21 08:45:03;;;;;;;10.55;9.55;;;;;;;29.94;70.95;97732.84;1701928;75;742741;-71
2023/06/21 08:47:37;;;;;;;12.20;10.50;;;;;;;29.92;67.14;97721.47;1710450;75;686085;-71
2023/06/21 08:50:11;;;;;;;10.05;9.15;;;;;;;30.04;65.91;97732.03;1702154;75;733323;-69
2023/06/21 08:52:43;;;;;;;10.80;9.70;;;;;;;30.19;66.02;97728.75;1711255;75;682068;-73
2023/06/21 08:55:15;;;;;;;10.00;9.00;;;;;;;30.19;63.90;97725.94;1701514;75;784999;-72
2023/06/21 08:57:52;;;;;;;11.60;9.90;;;;;;;30.31;64.54;97723.91;1711292;75;689697;-71
2023/06/21 09:00:25;;;;;;;10.10;9.20;;;;;;;30.28;61.57;97724.38;1701860;75;754732;-74
2023/06/21 09:03:08;;;;;;;9.70;8.70;;;;;;;30.30;64.06;97733.69;1710533;75;678088;-70
2023/06/21 09:05:48;;;;;;;10.00;9.10;;;;;;;30.45;63.71;97731.75;1701305;75;736717;-71
2023/06/21 09:08:19;;;;;;;11.55;8.85;;;;;;;30.52;65.89;97731.53;1702426;75;680443;-74
2023/06/21 09:10:52;;;;;;;10.10;9.10;;;;;;;30.63;65.30;97730.06;1710449;75;679422;-75
2023/06/21 09:13:23;;;;;;;10.25;9.30;;;;;;;30.85;63.27;97738.44;1701503;75;693959;-71
2023/06/21 09:15:53;;;;;;;11.30;10.20;;;;;;;30.73;65.61;97736.31;1710381;75;674521;-70
2023/06/21 09:18:35;;;;;;;11.50;10.30;;;;;;;30.68;63.04;97745.91;1702150;75;691928;-72
2023/06/21 09:21:06;;;;;;;10.30;9.30;;;;;;;30.85;57.89;97742.00;1710101;75;669011;-73
2023/06/21 09:23:37;;;;;;;9.05;8.00;;;;;;;30.76;56.62;97746.41;1701868;75;678278;-73
2023/06/21 09:26:07;;;;;;;10.30;7.80;;;;;;;30.92;55.82;97754.41;1710230;75;676366;-71
2023/06/21 09:28:37;;;;;;;8.70;7.60;;;;;;;31.08;53.55;97751.84;1701909;75;677323;-69
2023/06/21 09:31:07;;;;;;;9.70;8.20;;;;;;;31.11;56.43;97747.75;1710097;75;668304;-71
2023/06/21 09:33:41;;;;;;;8.70;7.90;;;;;;;31.26;56.56;97746.50;1701714;75;675174;-71
2023/06/21 09:36:11;;;;;;;8.80;7.90;;;;;;;31.24;56.82;97743.56;1709936;75;676738;-72
2023/06/21 09:38:43;;;;;;;8.75;7.90;;;;;;;31.55;56.20;97737.59;1701589;75;746051;-71
2023/06/21 09:41:15;;;;;;;8.45;7.65;;;;;;;31.53;55.79;97749.53;1710018;75;674476;-70
2023/06/21 09:43:46;;;;;;;8.10;7.30;;;;;;;31.94;55.85;97739.75;1701613;75;751940;-69
2023/06/21 09:46:17;;;;;;;9.20;8.30;;;;;;;31.47;55.50;97743.53;1710425;75;669871;-73
2023/06/21 09:48:50;;;;;;;8.90;8.10;;;;;;;31.76;56.84;97731.72;1701196;75;740643;-72
2023/06/21 09:51:26;;;;;;;7.80;7.10;;;;;;;32.15;57.02;97736.72;1710277;75;682992;-71
2023/06/21 09:53:56;;;;;;;9.90;8.85;;;;;;;31.98;52.54;97734.34;1701299;75;763789;-70
2023/06/21 09:56:27;;;;;;;8.35;7.65;;;;;;;32.20;53.75;97732.75;1709959;75;690020;-72
2023/06/21 09:58:57;;;;;;;7.90;7.15;;;;;;;32.35;53.22;97736.34;1700773;75;749898;-70
2023/06/21 10:01:27;;;;;;;12.65;7.25;;;;;;;32.32;50.19;97735.50;1710291;75;673690;-71
2023/06/21 10:04:00;;;;;;;9.10;7.40;;;;;;;32.04;49.65;97741.09;1700799;75;752997;-74
2023/06/21 10:06:33;;;;;;;9.00;7.00;;;;;;;32.18;48.62;97743.22;1708926;75;675590;-71
2023/06/21 10:09:03;;;;;;;7.50;6.75;;;;;;;32.42;49.19;97740.97;1699859;75;768208;-72
2023/06/21 10:11:36;;;;;;;8.20;6.55;;;;;;;32.32;49.09;97735.50;1709831;75;685313;-74
2023/06/21 10:14:06;;;;;;;12.20;7.80;;;;;;;32.13;49.80;97738.72;1700716;75;747985;-71
2023/06/21 10:16:37;;;;;;;12.45;6.95;;;;;;;32.33;50.46;97736.22;1709506;75;675858;-73
2023/06/21 10:19:10;;;;;;;7.20;6.45;;;;;;;32.55;50.43;97748.81;1700637;75;749020;-71
2023/06/21 10:21:42;;;;;;;9.50;7.40;;;;;;;32.52;51.64;97746.47;1709881;75;677948;-73
2023/06/21 10:24:15;;;;;;;8.40;7.15;;;;;;;32.59;50.80;97736.94;1701127;75;745539;-72
2023/06/21 10:26:49;;;;;;;7.20;6.60;;;;;;;33.07;50.96;97730.28;1710301;75;675353;-71
2023/06/21 10:29:20;;;;;;;8.35;6.50;;;;;;;33.37;49.66;97735.28;1700182;75;750679;-70
2023/06/21 10:31:56;;;;;;;8.35;6.40;;;;;;;33.42;51.14;97734.84;1709885;75;675363;-70
2023/06/21 10:34:33;;;;;;;6.25;5.40;;;;;;;33.21;49.33;97733.09;1700506;75;753843;-73
2023/06/21 10:37:18;;;;;;;6.50;5.80;;;;;;;33.82;47.97;97728.94;1700379;75;673508;-72
2023/06/21 10:39:50;;;;;;;12.00;7.50;;;;;;;33.68;46.58;97731.88;1710207;75;676299;-70
2023/06/21 10:42:23;;;;;;;7.90;6.80;;;;;;;34.26;48.02;97738.88;1702254;75;674888;-73
2023/06/21 10:44:54;;;;;;;8.75;6.45;;;;;;;33.97;46.27;97744.59;1710164;75;681359;-72
2023/06/21 10:47:28;;;;;;;6.90;6.00;;;;;;;33.94;45.11;97744.50;1702037;75;683153;-70
2023/06/21 10:50:04;;;;;;;6.30;5.70;;;;;;;34.24;44.71;97738.78;1709928;75;682690;-72
2023/06/21 10:52:34;;;;;;;5.75;4.90;;;;;;;34.47;46.56;97734.88;1700793;75;746372;-71
2023/06/21 10:55:07;;;;;;;5.20;4.70;;;;;;;34.71;44.76;97738.09;1710082;75;674146;-74
2023/06/21 10:57:39;;;;;;;5.15;4.65;;;;;;;34.97;44.05;97732.84;1700165;75;750090;-71
2023/06/21 11:00:12;;;;;;;7.10;5.25;;;;;;;34.87;42.00;97735.22;1709432;75;678942;-72
2023/06/21 11:02:42;;;;;;;5.35;4.75;;;;;;;34.89;42.22;97729.63;1700704;75;750720;-71
2023/06/21 11:05:23;;;;;;;5.50;4.30;;;;;;;35.25;43.30;97732.59;1709854;75;675215;-71
2023/06/21 11:07:58;;;;;;;7.70;6.90;;;;;;;34.57;43.17;97734.59;1701457;75;749878;-71
2023/06/21 11:10:42;;;;;;;8.80;5.80;;;;;;;34.71;43.03;97731.66;1709875;75;670762;-75
2023/06/21 11:13:13;;;;;;;7.10;5.70;;;;;;;34.72;42.44;97738.84;1700736;75;751159;-72
2023/06/21 11:15:48;;;;;;;6.70;6.00;;;;;;;34.72;42.59;97744.53;1710038;75;676571;-71
2023/06/21 11:18:21;;;;;;;5.85;4.90;;;;;;;34.72;42.29;97738.84;1700961;75;789345;-74
2023/06/21 11:20:59;;;;;;;9.10;6.10;;;;;;;34.42;43.44;97736.06;1710154;75;675122;-70
2023/06/21 11:23:29;;;;;;;7.30;6.00;;;;;;;34.32;43.90;97736.34;1700989;75;749028;-71
2023/06/21 11:26:17;;;;;;;7.85;5.40;;;;;;;34.55;45.44;97729.53;1709564;75;684341;-73
2023/06/21 11:28:51;;;;;;;6.45;5.60;;;;;;;34.42;45.04;97721.84;1699980;75;790398;-74
2023/06/21 11:31:26;;;;;;;6.70;6.00;;;;;;;34.44;46.43;97721.91;1708853;75;692122;-70
2023/06/21 11:33:59;;;;;;;8.70;7.10;;;;;;;34.45;43.87;97728.38;1700879;75;742194;-71
2023/06/21 11:36:34;;;;;;;7.10;5.80;;;;;;;34.61;42.75;97731.22;1709863;75;675449;-72